createdAt,value
2024-03-26T00:01:08.100Z,68.41
2024-03-26T00:03:36.187Z,68.47
2024-03-26T00:06:15.453Z,68.49
2024-03-26T00:08:42.922Z,68.75
2024-03-26T00:11:13.142Z,68.72
2024-03-26T00:13:40.597Z,68.69
2024-03-26T00:16:08.738Z,68.25
2024-03-26T00:18:36.188Z,68.36
2024-03-26T00:21:03.912Z,68.47
2024-03-26T00:23:31.814Z,68.38
2024-03-26T00:25:59.183Z,68.48
2024-03-26T00:28:29.050Z,68.51
2024-03-26T00:30:56.765Z,68.82
2024-03-26T00:33:24.101Z,68.67
2024-03-26T00:35:51.685Z,68.66
2024-03-26T00:38:19.059Z,69.02
2024-03-26T00:40:47.122Z,69.00
2024-03-26T00:43:14.456Z,69.03
2024-03-26T00:45:45.803Z,68.76
2024-03-26T00:48:21.599Z,68.71
2024-03-26T00:50:49.410Z,68.89
2024-03-26T00:53:16.812Z,69.14
2024-03-26T00:55:44.273Z,69.08
2024-03-26T00:58:12.104Z,68.86
2024-03-26T01:00:39.754Z,69.01
2024-03-26T01:03:10.934Z,69.09
2024-03-26T01:05:38.629Z,69.30
2024-03-26T01:08:08.002Z,69.31
2024-03-26T01:10:35.477Z,69.63
2024-03-26T01:13:03.001Z,69.47
2024-03-26T01:15:31.385Z,69.65
2024-03-26T01:18:01.138Z,69.54
2024-03-26T01:20:31.307Z,69.43
2024-03-26T01:22:59.040Z,69.41
2024-03-26T01:25:26.415Z,69.35
2024-03-26T01:27:54.399Z,69.28
2024-03-26T01:30:22.639Z,69.38
2024-03-26T01:32:50.106Z,69.58
2024-03-26T01:35:17.838Z,69.68
2024-03-26T01:37:48.572Z,69.62
2024-03-26T01:40:16.190Z,69.42
2024-03-26T01:42:43.764Z,69.70
2024-03-26T01:45:11.402Z,69.76
2024-03-26T01:47:39.769Z,69.68
2024-03-26T01:50:16.166Z,69.83
2024-03-26T01:52:48.752Z,69.66
2024-03-26T01:55:19.454Z,69.79
2024-03-26T01:57:49.682Z,69.86
2024-03-26T02:00:21.627Z,69.80
2024-03-26T02:02:54.067Z,69.90
2024-03-26T02:05:21.506Z,69.92
2024-03-26T02:07:52.316Z,69.85
2024-03-26T02:10:20.991Z,69.62
2024-03-26T02:12:49.864Z,69.83
2024-03-26T02:15:17.287Z,69.97
2024-03-26T02:17:44.675Z,69.72
2024-03-26T02:20:13.664Z,69.69
2024-03-26T02:22:41.315Z,69.49
2024-03-26T02:25:12.029Z,69.60
2024-03-26T02:27:41.885Z,69.52
2024-03-26T02:30:12.475Z,69.89
2024-03-26T02:32:39.895Z,69.80
2024-03-26T02:35:08.469Z,70.25
2024-03-26T02:37:35.892Z,70.42
2024-03-26T02:40:04.865Z,69.99
2024-03-26T02:42:33.810Z,70.29
2024-03-26T02:45:04.391Z,70.14
2024-03-26T02:47:32.369Z,70.44
2024-03-26T02:49:59.730Z,70.22
2024-03-26T02:52:27.128Z,69.94
2024-03-26T02:55:02.595Z,70.19
2024-03-26T02:57:29.948Z,70.32
2024-03-26T02:59:57.430Z,70.25
2024-03-26T03:02:27.316Z,70.21
2024-03-26T03:04:54.812Z,70.23
2024-03-26T03:07:24.100Z,70.20
2024-03-26T03:09:51.435Z,70.31
2024-03-26T03:12:18.783Z,70.15
2024-03-26T03:14:46.574Z,70.23
2024-03-26T03:17:13.940Z,70.28
2024-03-26T03:19:44.124Z,70.49
2024-03-26T03:22:12.607Z,70.57
2024-03-26T03:24:40.951Z,70.85
2024-03-26T03:27:08.312Z,70.64
2024-03-26T03:29:35.747Z,70.28
2024-03-26T03:32:04.468Z,70.53
2024-03-26T03:34:32.518Z,70.83
2024-03-26T03:37:14.842Z,70.58
2024-03-26T03:39:42.265Z,70.68
2024-03-26T03:42:10.204Z,70.72
2024-03-26T03:44:38.698Z,70.41
2024-03-26T03:47:06.818Z,71.00
2024-03-26T03:49:34.599Z,70.71
2024-03-26T03:52:05.438Z,70.80
2024-03-26T03:54:33.236Z,70.71
2024-03-26T03:57:00.622Z,70.84
2024-03-26T03:59:28.035Z,70.87
2024-03-26T04:01:55.841Z,70.96
2024-03-26T04:04:24.166Z,71.17
2024-03-26T04:06:51.539Z,71.15
2024-03-26T04:09:21.369Z,71.10
2024-03-26T04:11:52.230Z,71.13
2024-03-26T04:14:21.362Z,71.32
2024-03-26T04:16:49.054Z,70.95
2024-03-26T04:19:28.323Z,71.01
2024-03-26T04:21:55.700Z,71.11
2024-03-26T04:24:25.569Z,71.36
2024-03-26T04:26:52.924Z,71.38
2024-03-26T04:29:20.623Z,71.21
2024-03-26T04:31:53.539Z,71.33
2024-03-26T04:34:21.008Z,71.21
2024-03-26T04:36:52.624Z,71.24
2024-03-26T04:39:20.994Z,71.17
2024-03-26T04:41:50.768Z,71.17
2024-03-26T04:44:19.211Z,71.16
2024-03-26T04:46:46.998Z,71.39
2024-03-26T04:49:15.298Z,71.13
2024-03-26T04:51:43.258Z,71.25
2024-03-26T04:54:13.207Z,71.03
2024-03-26T04:56:40.644Z,71.28
2024-03-26T04:59:14.201Z,71.12
2024-03-26T05:01:42.169Z,71.34
2024-03-26T05:04:11.601Z,71.65
2024-03-26T05:06:39.066Z,71.56
2024-03-26T05:09:06.461Z,71.58
2024-03-26T05:11:35.785Z,71.87
2024-03-26T05:14:03.444Z,71.99
2024-03-26T05:16:33.879Z,71.87
2024-03-26T05:19:01.222Z,71.90
2024-03-26T05:21:28.587Z,71.92
2024-03-26T05:23:56.014Z,72.03
2024-03-26T05:26:23.477Z,72.08
2024-03-26T05:28:51.855Z,72.04
2024-03-26T05:31:21.807Z,72.12
2024-03-26T05:33:51.738Z,72.19
2024-03-26T05:36:19.181Z,72.14
2024-03-26T05:38:46.582Z,72.21
2024-03-26T05:41:13.956Z,72.27
2024-03-26T05:43:54.819Z,72.07
2024-03-26T05:46:22.220Z,72.28
2024-03-26T05:48:52.430Z,72.16
2024-03-26T05:51:21.152Z,72.67
2024-03-26T05:53:48.600Z,72.46
2024-03-26T05:56:16.286Z,72.46
2024-03-26T05:58:43.615Z,72.67
2024-03-26T06:01:13.147Z,72.70
2024-03-26T06:03:41.666Z,72.42
2024-03-26T06:06:12.705Z,72.39
2024-03-26T06:08:40.161Z,72.64
2024-03-26T06:11:07.693Z,72.62
2024-03-26T06:13:35.877Z,73.09
2024-03-26T06:16:06.352Z,72.73
2024-03-26T06:18:33.922Z,72.67
2024-03-26T06:21:01.346Z,72.66
2024-03-26T06:23:31.409Z,72.44
2024-03-26T06:26:05.947Z,72.86
2024-03-26T06:28:34.599Z,72.80
2024-03-26T06:31:01.970Z,72.65
2024-03-26T06:33:29.602Z,72.44
2024-03-26T06:35:56.975Z,72.63
2024-03-26T06:38:24.391Z,72.59
2024-03-26T06:40:56.946Z,72.58
2024-03-26T06:43:25.563Z,72.79
2024-03-26T06:45:54.066Z,72.96
2024-03-26T06:48:21.468Z,73.00
2024-03-26T06:50:49.911Z,72.59
2024-03-26T06:53:17.405Z,72.52
2024-03-26T06:55:45.147Z,72.81
2024-03-26T06:58:15.309Z,72.52
2024-03-26T07:00:42.638Z,72.17
2024-03-26T07:03:12.933Z,72.05
2024-03-26T07:05:40.279Z,72.09
2024-03-26T07:08:20.236Z,72.35
2024-03-26T07:10:50.448Z,72.29
2024-03-26T07:13:21.125Z,71.64
2024-03-26T07:15:48.529Z,71.29
2024-03-26T07:18:15.924Z,71.99
2024-03-26T07:20:43.622Z,71.05
2024-03-26T07:23:11.602Z,71.44
2024-03-26T07:25:38.970Z,70.59
2024-03-26T07:28:07.305Z,70.59
2024-03-26T07:30:37.312Z,70.58
2024-03-26T07:33:05.667Z,69.69
2024-03-26T07:35:33.699Z,69.18
2024-03-26T07:38:01.697Z,67.92
2024-03-26T07:40:29.641Z,66.65
2024-03-26T07:42:59.732Z,65.99
2024-03-26T07:45:29.411Z,65.66
2024-03-26T07:48:00.496Z,64.71
2024-03-26T07:50:30.805Z,62.98
2024-03-26T07:52:58.258Z,64.42
2024-03-26T07:55:25.714Z,64.05
2024-03-26T07:58:03.966Z,63.30
2024-03-26T08:00:31.478Z,61.78
2024-03-26T08:03:02.398Z,62.31
2024-03-26T08:05:30.021Z,58.57
2024-03-26T08:07:57.440Z,58.73
2024-03-26T08:10:24.917Z,58.07
2024-03-26T08:12:53.977Z,59.53
2024-03-26T08:15:21.675Z,59.30
2024-03-26T08:17:49.414Z,56.62
2024-03-26T08:20:19.293Z,57.59
2024-03-26T08:22:46.804Z,56.17
2024-03-26T08:25:14.572Z,55.58
2024-03-26T08:27:41.932Z,53.92
2024-03-26T08:30:14.631Z,52.86
2024-03-26T08:32:42.086Z,56.75
2024-03-26T08:35:11.590Z,55.26
2024-03-26T08:37:41.515Z,56.71
2024-03-26T08:40:11.309Z,52.35
2024-03-26T08:42:39.086Z,53.42
2024-03-26T08:45:09.761Z,54.28
2024-03-26T08:47:39.032Z,52.85
2024-03-26T08:50:10.442Z,55.60
2024-03-26T08:52:37.848Z,54.68
2024-03-26T08:55:09.877Z,53.59
2024-03-26T08:57:37.290Z,54.71
2024-03-26T09:00:11.838Z,54.78
2024-03-26T09:02:39.295Z,53.82
2024-03-26T09:05:07.338Z,54.69
2024-03-26T09:07:42.172Z,53.78
2024-03-26T09:10:27.101Z,54.19
2024-03-26T09:12:54.444Z,55.69
2024-03-26T09:15:22.462Z,54.76
2024-03-26T09:17:53.164Z,56.03
2024-03-26T09:20:20.911Z,55.33
2024-03-26T09:22:48.615Z,56.70
2024-03-26T09:25:15.950Z,53.98
2024-03-26T09:27:46.146Z,56.52
2024-03-26T09:30:14.817Z,54.84
2024-03-26T09:32:44.162Z,55.29
2024-03-26T09:35:12.380Z,55.71
2024-03-26T09:37:43.884Z,54.28
2024-03-26T09:40:14.568Z,55.11
2024-03-26T09:42:59.022Z,55.12
2024-03-26T09:45:34.097Z,53.69
2024-03-26T09:48:03.126Z,54.30
2024-03-26T09:50:32.800Z,54.18
2024-03-26T09:53:01.114Z,55.51
2024-03-26T09:55:29.516Z,55.87
2024-03-26T09:57:59.369Z,55.81
2024-03-26T10:00:32.432Z,56.71
2024-03-26T10:03:04.948Z,57.13
2024-03-26T10:05:32.328Z,56.23
2024-03-26T10:07:59.828Z,57.57
2024-03-26T10:10:29.845Z,56.83
2024-03-26T10:13:52.814Z,56.76
2024-03-26T10:16:20.495Z,56.23
2024-03-26T10:18:50.956Z,57.20
2024-03-26T10:21:18.441Z,56.36
2024-03-26T10:23:45.755Z,56.65
2024-03-26T10:26:13.508Z,57.80
2024-03-26T10:28:45.102Z,57.00
2024-03-26T10:31:13.362Z,57.22
2024-03-26T10:33:41.770Z,56.81
2024-03-26T10:36:13.086Z,57.86
2024-03-26T10:38:47.911Z,56.28
2024-03-26T10:41:25.411Z,57.77
2024-03-26T10:43:57.874Z,55.36
2024-03-26T10:46:25.589Z,57.51
2024-03-26T10:49:00.476Z,57.71
2024-03-26T10:51:30.633Z,57.51
2024-03-26T10:54:01.260Z,58.85
2024-03-26T10:56:30.854Z,58.65
2024-03-26T10:59:03.019Z,58.04
2024-03-26T11:01:32.894Z,56.54
2024-03-26T11:04:01.668Z,57.63
2024-03-26T11:06:30.451Z,58.19
2024-03-26T11:08:58.874Z,57.54
2024-03-26T11:11:26.246Z,58.50
2024-03-26T11:13:57.897Z,58.14
2024-03-26T11:16:40.186Z,57.05
2024-03-26T11:19:18.982Z,56.55
2024-03-26T11:21:51.605Z,58.45
2024-03-26T11:24:26.168Z,59.00
2024-03-26T11:26:53.590Z,59.59
2024-03-26T11:29:20.935Z,57.92
2024-03-26T11:31:51.652Z,57.31
2024-03-26T11:34:22.270Z,58.28
2024-03-26T11:36:53.386Z,55.81
2024-03-26T11:39:23.736Z,56.74
2024-03-26T11:41:52.035Z,57.87
2024-03-26T11:44:19.977Z,58.07
2024-03-26T11:46:50.202Z,59.59
2024-03-26T11:49:17.598Z,58.55
2024-03-26T11:51:45.992Z,57.61
2024-03-26T11:54:17.557Z,58.05
2024-03-26T11:56:45.178Z,57.31
2024-03-26T11:59:12.579Z,57.26
2024-03-26T12:01:40.328Z,58.22
2024-03-26T12:04:11.171Z,57.36
2024-03-26T12:06:38.592Z,55.74
2024-03-26T12:09:07.505Z,58.23
2024-03-26T12:11:35.118Z,58.02
2024-03-26T12:14:03.559Z,56.81
2024-03-26T12:16:31.559Z,57.53
2024-03-26T12:18:59.147Z,57.73
2024-03-26T12:21:29.006Z,57.62
2024-03-26T12:23:58.212Z,56.98
2024-03-26T12:26:25.610Z,57.27
2024-03-26T12:28:52.961Z,57.07
2024-03-26T12:31:22.533Z,57.33
2024-03-26T12:33:49.965Z,56.51
2024-03-26T12:36:17.365Z,56.67
2024-03-26T12:38:47.844Z,57.61
2024-03-26T12:41:15.290Z,57.20
2024-03-26T12:43:42.655Z,57.67
2024-03-26T12:46:09.984Z,56.68
2024-03-26T12:48:37.383Z,58.75
2024-03-26T12:51:05.178Z,58.76
2024-03-26T12:53:32.569Z,58.53
2024-03-26T12:56:02.403Z,57.66
2024-03-26T12:58:29.833Z,58.26
2024-03-26T13:00:57.317Z,59.60
2024-03-26T13:03:24.708Z,56.81
2024-03-26T13:05:52.086Z,56.64
2024-03-26T13:08:19.471Z,58.50
2024-03-26T13:10:49.963Z,55.83
2024-03-26T13:13:20.218Z,57.96
2024-03-26T13:15:48.765Z,57.76
2024-03-26T13:18:16.090Z,58.23
2024-03-26T13:20:43.491Z,57.70
2024-03-26T13:23:10.934Z,57.90
2024-03-26T13:25:38.311Z,56.95
2024-03-26T13:28:06.084Z,59.13
2024-03-26T13:30:41.263Z,57.68
2024-03-26T13:33:12.914Z,59.91
2024-03-26T13:35:40.348Z,56.87
2024-03-26T13:38:10.344Z,57.74
2024-03-26T13:40:50.101Z,58.23
2024-03-26T13:43:20.822Z,59.19
2024-03-26T13:45:51.567Z,57.29
2024-03-26T13:48:19.922Z,58.98
2024-03-26T13:50:48.120Z,58.34
2024-03-26T13:53:16.063Z,58.07
2024-03-26T13:55:44.052Z,58.87
2024-03-26T13:58:11.602Z,57.20
2024-03-26T14:00:39.686Z,57.14
2024-03-26T14:03:09.687Z,57.32
2024-03-26T14:05:37.205Z,57.83
2024-03-26T14:08:05.092Z,58.68
2024-03-26T14:10:32.333Z,59.16
2024-03-26T14:12:59.632Z,59.34
2024-03-26T14:15:27.734Z,58.41
2024-03-26T14:17:55.056Z,59.09
2024-03-26T14:20:24.938Z,58.41
2024-03-26T14:22:52.249Z,57.81
2024-03-26T14:25:19.589Z,58.48
2024-03-26T14:27:47.430Z,59.05
2024-03-26T14:30:15.851Z,57.92
2024-03-26T14:32:43.698Z,60.01
2024-03-26T14:35:12.984Z,57.89
2024-03-26T14:37:49.241Z,59.05
2024-03-26T14:40:17.035Z,59.05
2024-03-26T14:42:44.417Z,59.17
2024-03-26T14:45:13.464Z,58.76
2024-03-26T14:47:41.684Z,58.50
2024-03-26T14:50:11.631Z,59.75
2024-03-26T14:52:38.991Z,60.13
2024-03-26T14:55:09.544Z,60.19
2024-03-26T14:57:36.971Z,60.28
2024-03-26T15:00:12.151Z,60.00
2024-03-26T15:02:39.576Z,59.57
2024-03-26T15:05:09.360Z,60.66
2024-03-26T15:07:37.323Z,60.60
2024-03-26T15:10:05.961Z,60.64
2024-03-26T15:12:36.066Z,60.51
2024-03-26T15:15:04.909Z,60.53
2024-03-26T15:17:32.681Z,61.21
2024-03-26T15:20:02.709Z,60.93
2024-03-26T15:22:30.508Z,61.95
2024-03-26T15:24:59.300Z,61.08
2024-03-26T15:27:26.680Z,61.01
2024-03-26T15:30:14.960Z,60.99
2024-03-26T15:32:42.486Z,61.41
2024-03-26T15:35:09.930Z,61.89
2024-03-26T15:37:38.717Z,61.88
2024-03-26T15:40:09.149Z,60.81
2024-03-26T15:42:37.717Z,61.53
2024-03-26T15:45:09.501Z,61.96
2024-03-26T15:47:36.891Z,62.51
2024-03-26T15:50:06.809Z,62.10
2024-03-26T15:52:34.494Z,62.50
2024-03-26T15:55:01.945Z,62.51
2024-03-26T15:57:29.397Z,63.34
2024-03-26T15:59:56.769Z,61.65
2024-03-26T16:02:26.919Z,63.38
2024-03-26T16:04:54.353Z,62.78
2024-03-26T16:07:22.191Z,62.55
2024-03-26T16:10:04.234Z,62.18
2024-03-26T16:12:36.990Z,62.06
2024-03-26T16:15:05.449Z,63.08
2024-03-26T16:17:35.323Z,62.25
2024-03-26T16:20:03.796Z,63.46
2024-03-26T16:22:31.307Z,63.09
2024-03-26T16:24:58.743Z,63.11
2024-03-26T16:27:26.543Z,63.06
2024-03-26T16:29:55.046Z,62.74
2024-03-26T16:32:23.110Z,63.13
2024-03-26T16:34:53.065Z,63.53
2024-03-26T16:37:20.467Z,63.32
2024-03-26T16:39:47.719Z,62.86
2024-03-26T16:42:14.985Z,63.13
2024-03-26T16:44:42.376Z,63.33
2024-03-26T16:47:10.073Z,63.86
2024-03-26T16:49:37.388Z,63.32
2024-03-26T16:52:08.336Z,63.42
2024-03-26T16:54:35.804Z,64.07
2024-03-26T16:57:04.957Z,62.62
2024-03-26T16:59:32.313Z,63.73
2024-03-26T17:01:59.738Z,63.95
2024-03-26T17:04:27.074Z,64.40
2024-03-26T17:06:54.421Z,64.78
2024-03-26T17:09:24.893Z,64.28
2024-03-26T17:11:52.247Z,64.93
2024-03-26T17:14:19.601Z,64.97
2024-03-26T17:17:05.120Z,64.94
2024-03-26T17:19:37.588Z,65.01
2024-03-26T17:22:06.514Z,64.67
2024-03-26T17:24:36.370Z,64.97
2024-03-26T17:27:04.609Z,65.11
2024-03-26T17:29:31.982Z,65.21
2024-03-26T17:31:59.355Z,65.17
2024-03-26T17:34:26.795Z,65.32
2024-03-26T17:36:54.366Z,65.62
2024-03-26T17:39:21.933Z,65.85
2024-03-26T17:41:51.794Z,65.78
2024-03-26T17:44:19.305Z,65.82
2024-03-26T17:46:47.657Z,65.91
2024-03-26T17:49:15.248Z,66.08
2024-03-26T17:51:42.620Z,66.03
2024-03-26T17:54:10.000Z,66.35
2024-03-26T17:56:37.387Z,66.70
2024-03-26T17:59:07.789Z,66.71
2024-03-26T18:01:35.613Z,66.88
2024-03-26T18:04:03.020Z,67.04
2024-03-26T18:06:30.357Z,66.86
2024-03-26T18:08:57.763Z,67.09
2024-03-26T18:11:25.089Z,67.05
2024-03-26T18:13:52.446Z,67.20
2024-03-26T18:16:23.006Z,67.54
2024-03-26T18:18:50.689Z,67.27
2024-03-26T18:21:18.052Z,67.32
2024-03-26T18:23:45.396Z,67.39
2024-03-26T18:26:12.806Z,67.56
2024-03-26T18:28:40.199Z,67.68
2024-03-26T18:31:07.602Z,67.77
2024-03-26T18:33:38.397Z,68.13
2024-03-26T18:36:06.343Z,67.95
2024-03-26T18:38:35.766Z,67.86
2024-03-26T18:41:06.617Z,68.04
2024-03-26T18:43:35.274Z,68.03
2024-03-26T18:46:09.566Z,68.18
2024-03-26T18:48:39.954Z,68.19
2024-03-26T18:51:07.666Z,68.15
2024-03-26T18:53:39.489Z,68.31
2024-03-26T18:56:09.813Z,68.43
2024-03-26T18:58:39.051Z,68.53
2024-03-26T19:01:13.290Z,68.60
2024-03-26T19:03:43.900Z,68.62
2024-03-26T19:06:11.307Z,68.60
2024-03-26T19:08:39.019Z,68.70
2024-03-26T19:11:06.737Z,68.67
2024-03-26T19:13:34.463Z,68.84
2024-03-26T19:16:02.345Z,68.78
2024-03-26T19:18:32.726Z,68.90
2024-03-26T19:21:04.806Z,68.96
2024-03-26T19:23:32.496Z,68.87
2024-03-26T19:26:01.114Z,68.94
2024-03-26T19:28:28.741Z,69.16
2024-03-26T19:30:56.952Z,69.28
2024-03-26T19:33:24.502Z,69.41
2024-03-26T19:35:58.950Z,69.60
2024-03-26T19:38:29.119Z,69.76
2024-03-26T19:40:58.318Z,70.33
2024-03-26T19:43:26.108Z,70.00
2024-03-26T19:46:00.890Z,70.02
2024-03-26T19:48:28.246Z,70.26
2024-03-26T19:50:56.347Z,70.59
2024-03-26T19:53:24.626Z,70.54
2024-03-26T19:56:00.149Z,70.45
2024-03-26T19:58:29.259Z,70.63
2024-03-26T20:01:01.985Z,70.87
2024-03-26T20:03:29.842Z,70.94
2024-03-26T20:06:00.604Z,70.99
2024-03-26T20:08:28.176Z,70.87
2024-03-26T20:10:58.331Z,70.92
2024-03-26T20:13:25.735Z,70.89
2024-03-26T20:15:53.636Z,70.84
2024-03-26T20:18:21.249Z,70.91
2024-03-26T20:20:53.649Z,70.61
2024-03-26T20:23:21.104Z,70.62
2024-03-26T20:25:48.829Z,71.32
2024-03-26T20:28:18.691Z,70.85
2024-03-26T20:30:46.079Z,71.01
2024-03-26T20:33:14.904Z,70.99
2024-03-26T20:35:42.366Z,71.09
2024-03-26T20:38:09.900Z,71.13
2024-03-26T20:40:44.472Z,71.05
2024-03-26T20:43:13.521Z,71.47
2024-03-26T20:45:43.537Z,71.83
2024-03-26T20:48:11.123Z,71.99
2024-03-26T20:50:38.492Z,71.93
2024-03-26T20:53:06.396Z,72.32
2024-03-26T20:55:36.299Z,72.05
2024-03-26T20:58:05.475Z,72.17
2024-03-26T21:00:35.164Z,72.04
2024-03-26T21:03:05.967Z,71.78
2024-03-26T21:05:33.505Z,72.05
2024-03-26T21:08:01.679Z,72.13
2024-03-26T21:10:31.447Z,72.02
2024-03-26T21:12:59.711Z,72.53
2024-03-26T21:15:29.354Z,72.54
2024-03-26T21:18:00.040Z,72.78
2024-03-26T21:20:32.936Z,72.50
2024-03-26T21:23:00.408Z,72.57
2024-03-26T21:25:27.880Z,72.80
2024-03-26T21:27:56.223Z,72.72
2024-03-26T21:30:23.681Z,72.69
2024-03-26T21:32:51.130Z,72.73
2024-03-26T21:35:18.786Z,72.71
2024-03-26T21:37:48.794Z,73.04
2024-03-26T21:40:17.067Z,73.02
2024-03-26T21:42:48.845Z,72.81
2024-03-26T21:45:17.736Z,72.78
2024-03-26T21:47:45.661Z,72.59
2024-03-26T21:50:13.950Z,72.63
2024-03-26T21:52:41.429Z,72.59
2024-03-26T21:55:12.984Z,72.93
2024-03-26T21:57:41.350Z,72.53
2024-03-26T22:00:12.686Z,72.61
2024-03-26T22:02:40.978Z,72.65
2024-03-26T22:05:08.864Z,72.32
2024-03-26T22:07:36.339Z,72.17
2024-03-26T22:10:05.894Z,72.00
2024-03-26T22:12:35.909Z,71.87
2024-03-26T22:15:03.810Z,71.94
2024-03-26T22:17:31.343Z,71.58
2024-03-26T22:19:59.237Z,71.44
2024-03-26T22:22:26.878Z,71.45
2024-03-26T22:24:54.391Z,71.37
2024-03-26T22:27:23.133Z,71.41
2024-03-26T22:29:53.355Z,71.34
2024-03-26T22:32:22.144Z,71.47
2024-03-26T22:34:49.777Z,71.60
2024-03-26T22:37:17.321Z,71.86
2024-03-26T22:39:44.952Z,71.92
2024-03-26T22:42:12.495Z,71.83
2024-03-26T22:44:40.005Z,72.13
2024-03-26T22:47:10.017Z,71.92
2024-03-26T22:49:37.521Z,72.08
2024-03-26T22:52:06.376Z,72.26
2024-03-26T22:54:33.985Z,72.30
2024-03-26T22:57:01.520Z,72.44
2024-03-26T22:59:29.070Z,72.16
2024-03-26T23:01:56.572Z,72.10
2024-03-26T23:04:26.566Z,72.01
2024-03-26T23:06:54.420Z,71.89
2024-03-26T23:09:22.611Z,71.79
2024-03-26T23:11:50.109Z,71.52
2024-03-26T23:14:17.675Z,71.81
2024-03-26T23:16:45.326Z,71.76
2024-03-26T23:19:12.898Z,71.57
2024-03-26T23:21:43.520Z,71.59
2024-03-26T23:24:11.037Z,71.92
2024-03-26T23:26:38.558Z,71.85
2024-03-26T23:29:06.035Z,71.77
2024-03-26T23:31:33.599Z,71.70
2024-03-26T23:34:01.111Z,71.86
2024-03-26T23:36:28.611Z,71.87
2024-03-26T23:38:59.177Z,71.97
2024-03-26T23:41:26.670Z,71.81
2024-03-26T23:43:54.185Z,71.51
2024-03-26T23:46:21.943Z,71.85
2024-03-26T23:48:49.660Z,72.03
2024-03-26T23:51:17.254Z,71.82
2024-03-26T23:53:45.749Z,71.93
2024-03-26T23:56:15.743Z,71.88
2024-03-26T23:58:43.809Z,72.04
